createdAt,value
2023-02-07T00:07:26.992Z,17.20
2023-02-07T00:17:24.880Z,17.50
2023-02-07T00:27:25.212Z,18.50
2023-02-07T00:37:25.256Z,16.50
2023-02-07T00:47:26.502Z,18.00
2023-02-07T00:57:25.851Z,16.40
2023-02-07T01:07:25.961Z,16.30
2023-02-07T01:17:26.001Z,17.30
2023-02-07T01:27:26.328Z,20.20
2023-02-07T01:37:26.376Z,16.90
2023-02-07T01:47:26.751Z,15.60
2023-02-07T01:57:26.860Z,13.40
2023-02-07T02:07:26.970Z,16.10
2023-02-07T02:17:27.011Z,17.10
2023-02-07T02:27:29.276Z,15.90
2023-02-07T02:37:27.524Z,16.70
2023-02-07T02:47:27.809Z,15.90
2023-02-07T02:57:27.856Z,17.30
2023-02-07T03:07:28.189Z,18.10
2023-02-07T03:17:28.311Z,19.10
2023-02-07T03:27:28.528Z,17.70
2023-02-07T03:37:28.582Z,20.10
2023-02-07T03:47:28.936Z,22.00
2023-02-07T03:57:28.975Z,21.00
2023-02-07T04:07:29.290Z,21.50
2023-02-07T04:17:31.302Z,20.70
2023-02-07T04:27:29.557Z,20.70
2023-02-07T04:37:29.789Z,19.00
2023-02-07T04:47:30.139Z,20.10
2023-02-07T04:57:30.195Z,20.80
2023-02-07T05:07:30.304Z,19.30
2023-02-07T05:17:30.537Z,19.90
2023-02-07T05:27:30.885Z,10.70
2023-02-07T05:37:30.922Z,11.90
2023-02-07T05:47:31.233Z,9.80
2023-02-07T05:57:31.281Z,11.00
2023-02-07T06:07:31.612Z,14.80
2023-02-07T06:17:31.632Z,17.20
2023-02-07T06:27:31.980Z,15.30
2023-02-07T06:37:32.012Z,21.60
2023-02-07T06:47:32.370Z,15.10
2023-02-07T06:57:32.433Z,15.60
2023-02-07T07:07:35.185Z,15.70
2023-02-07T07:17:32.609Z,15.30
2023-02-07T07:27:32.885Z,17.50
2023-02-07T07:37:33.145Z,11.20
2023-02-07T07:47:33.463Z,7.60
2023-02-07T07:57:33.501Z,5.00
2023-02-07T08:07:33.827Z,8.00
2023-02-07T08:17:33.856Z,18.10
2023-02-07T08:27:34.204Z,20.70
2023-02-07T08:37:34.240Z,17.70
2023-02-07T08:47:34.567Z,20.30
2023-02-07T08:57:34.640Z,20.10
2023-02-07T09:07:34.944Z,17.80
2023-02-07T09:17:34.981Z,18.90
2023-02-07T09:27:35.325Z,25.10
2023-02-07T09:37:48.803Z,19.40
2023-02-07T09:47:36.661Z,15.60
2023-02-07T09:57:35.766Z,11.80
2023-02-07T10:07:35.780Z,10.90
2023-02-07T10:17:36.030Z,10.90
2023-02-07T10:27:36.282Z,11.20
2023-02-07T10:37:36.617Z,11.50
2023-02-07T10:47:36.661Z,13.20
2023-02-07T10:57:36.976Z,24.20
2023-02-07T11:07:47.386Z,10.70
2023-02-07T11:17:38.122Z,9.70
2023-02-07T11:27:37.438Z,9.60
2023-02-07T11:37:37.504Z,13.70
2023-02-07T11:47:37.819Z,17.20
2023-02-07T11:57:37.851Z,15.80
2023-02-07T12:07:38.176Z,16.50
2023-02-07T12:17:38.202Z,15.60
2023-02-07T12:27:38.555Z,16.20
2023-02-07T12:37:38.600Z,16.70
2023-02-07T12:47:38.931Z,17.30
2023-02-07T12:57:38.953Z,18.00
2023-02-07T13:07:39.290Z,16.60
2023-02-07T13:17:39.311Z,15.60
2023-02-07T13:27:39.652Z,16.80
2023-02-07T13:37:39.679Z,15.60
2023-02-07T13:47:40.023Z,16.70
2023-02-07T13:57:40.085Z,16.60
2023-02-07T14:07:40.407Z,16.40
2023-02-07T14:17:40.418Z,17.30
2023-02-07T14:27:40.682Z,17.60
2023-02-07T14:37:40.728Z,16.80
2023-02-07T14:47:41.245Z,22.20
2023-02-07T14:57:41.161Z,21.50
2023-02-07T15:07:41.402Z,24.10
2023-02-07T15:17:44.482Z,25.20
2023-02-07T15:27:42.809Z,24.40
2023-02-07T15:37:41.848Z,26.90
2023-02-07T15:47:42.086Z,26.60
2023-02-07T15:57:42.317Z,27.20
2023-02-07T16:07:42.583Z,26.70
2023-02-07T16:17:42.818Z,110.70
2023-02-07T16:27:43.095Z,30.50
2023-02-07T16:37:43.177Z,29.70
2023-02-07T16:47:43.360Z,29.70
2023-02-07T16:57:43.424Z,33.40
2023-02-07T17:07:43.733Z,30.40
2023-02-07T17:17:43.761Z,32.90
2023-02-07T17:27:44.100Z,27.80
2023-02-07T17:37:44.456Z,37.70
2023-02-07T17:47:45.548Z,30.80
2023-02-07T17:57:44.474Z,35.50
2023-02-07T18:07:45.011Z,30.60
2023-02-07T18:17:45.045Z,29.00
2023-02-07T18:27:45.285Z,33.90
2023-02-07T18:37:46.275Z,35.80
2023-02-07T18:47:45.735Z,37.50
2023-02-07T18:57:45.942Z,36.00
2023-02-07T19:07:47.174Z,39.20
2023-02-07T19:17:47.975Z,46.90
2023-02-07T19:27:46.582Z,43.30
2023-02-07T19:37:46.598Z,39.10
2023-02-07T19:47:46.536Z,38.50
2023-02-07T19:57:47.084Z,39.70
2023-02-07T20:07:47.281Z,40.40
2023-02-07T20:17:47.503Z,33.40
2023-02-07T20:27:47.864Z,41.30
2023-02-07T20:37:48.352Z,37.50
2023-02-07T20:47:47.943Z,36.00
2023-02-07T20:57:48.128Z,42.70
2023-02-07T21:07:50.602Z,39.40
2023-02-07T21:17:52.857Z,45.90
2023-02-07T21:27:48.434Z,47.20
2023-02-07T21:37:48.516Z,44.40
2023-02-07T21:47:48.682Z,45.90
2023-02-07T21:57:48.923Z,40.80
2023-02-07T22:07:48.955Z,38.40
2023-02-07T22:17:49.261Z,41.50
2023-02-07T22:27:49.321Z,36.00
2023-02-07T22:37:49.648Z,41.40
2023-02-07T22:47:49.675Z,38.50
2023-02-07T22:57:50.000Z,34.80
2023-02-07T23:07:50.049Z,37.70
2023-02-07T23:17:50.382Z,35.70
2023-02-07T23:27:50.423Z,43.40
2023-02-07T23:37:50.535Z,41.70
2023-02-07T23:47:50.771Z,40.60
2023-02-07T23:57:52.060Z,39.40
